sensor_id;sensor_type;location;lat;lon;timestamp;P1;durP1;ratioP1;P2;durP2;ratioP2
47635;SDS011;33364;50.766;15.338;2024-02-23T00:01:32;3.03;;;2.20;;
47635;SDS011;33364;50.766;15.338;2024-02-23T00:03:57;2.60;;;2.10;;
47635;SDS011;33364;50.766;15.338;2024-02-23T00:06:23;3.17;;;2.08;;
47635;SDS011;33364;50.766;15.338;2024-02-23T00:08:53;3.38;;;2.08;;
47635;SDS011;33364;50.766;15.338;2024-02-23T00:11:20;2.67;;;1.80;;
47635;SDS011;33364;50.766;15.338;2024-02-23T00:13:46;2.72;;;1.90;;
47635;SDS011;33364;50.766;15.338;2024-02-23T00:16:13;3.03;;;2.10;;
47635;SDS011;33364;50.766;15.338;2024-02-23T00:18:39;4.55;;;2.08;;
47635;SDS011;33364;50.766;15.338;2024-02-23T00:21:05;2.70;;;1.98;;
47635;SDS011;33364;50.766;15.338;2024-02-23T00:23:30;3.28;;;2.35;;
47635;SDS011;33364;50.766;15.338;2024-02-23T00:25:56;2.30;;;1.83;;
47635;SDS011;33364;50.766;15.338;2024-02-23T00:28:22;1.67;;;1.50;;
47635;SDS011;33364;50.766;15.338;2024-02-23T00:30:48;1.83;;;1.58;;
47635;SDS011;33364;50.766;15.338;2024-02-23T00:33:13;2.33;;;1.52;;
47635;SDS011;33364;50.766;15.338;2024-02-23T00:35:39;2.78;;;1.88;;
47635;SDS011;33364;50.766;15.338;2024-02-23T00:38:05;2.75;;;1.90;;
47635;SDS011;33364;50.766;15.338;2024-02-23T00:40:31;3.10;;;1.88;;
47635;SDS011;33364;50.766;15.338;2024-02-23T00:42:56;3.45;;;2.00;;
47635;SDS011;33364;50.766;15.338;2024-02-23T00:45:22;2.90;;;2.10;;
47635;SDS011;33364;50.766;15.338;2024-02-23T00:47:47;3.03;;;2.13;;
47635;SDS011;33364;50.766;15.338;2024-02-23T00:50:13;2.72;;;1.80;;
47635;SDS011;33364;50.766;15.338;2024-02-23T00:52:39;2.45;;;1.90;;
47635;SDS011;33364;50.766;15.338;2024-02-23T00:55:06;3.55;;;2.45;;
47635;SDS011;33364;50.766;15.338;2024-02-23T00:57:33;2.88;;;1.90;;
47635;SDS011;33364;50.766;15.338;2024-02-23T01:00:01;3.40;;;2.35;;
47635;SDS011;33364;50.766;15.338;2024-02-23T01:02:30;2.88;;;2.08;;
47635;SDS011;33364;50.766;15.338;2024-02-23T01:04:57;2.75;;;2.25;;
47635;SDS011;33364;50.766;15.338;2024-02-23T01:07:24;3.95;;;2.30;;
47635;SDS011;33364;50.766;15.338;2024-02-23T01:09:50;2.78;;;2.03;;
47635;SDS011;33364;50.766;15.338;2024-02-23T01:12:16;3.58;;;2.83;;
47635;SDS011;33364;50.766;15.338;2024-02-23T01:14:42;3.85;;;2.75;;
47635;SDS011;33364;50.766;15.338;2024-02-23T01:17:07;3.45;;;2.75;;
47635;SDS011;33364;50.766;15.338;2024-02-23T01:19:33;5.72;;;3.10;;
47635;SDS011;33364;50.766;15.338;2024-02-23T01:21:59;3.22;;;2.72;;
47635;SDS011;33364;50.766;15.338;2024-02-23T01:24:26;3.45;;;2.40;;
47635;SDS011;33364;50.766;15.338;2024-02-23T01:26:53;4.10;;;2.67;;
47635;SDS011;33364;50.766;15.338;2024-02-23T01:29:20;3.67;;;2.55;;
47635;SDS011;33364;50.766;15.338;2024-02-23T01:31:47;3.70;;;2.50;;
47635;SDS011;33364;50.766;15.338;2024-02-23T01:34:14;3.67;;;2.85;;
47635;SDS011;33364;50.766;15.338;2024-02-23T01:36:40;3.55;;;2.70;;
47635;SDS011;33364;50.766;15.338;2024-02-23T01:39:06;4.47;;;2.88;;
47635;SDS011;33364;50.766;15.338;2024-02-23T01:41:33;4.72;;;2.90;;
47635;SDS011;33364;50.766;15.338;2024-02-23T01:43:58;3.88;;;2.72;;
47635;SDS011;33364;50.766;15.338;2024-02-23T01:46:24;3.90;;;2.90;;
47635;SDS011;33364;50.766;15.338;2024-02-23T01:48:50;3.05;;;2.63;;
47635;SDS011;33364;50.766;15.338;2024-02-23T01:51:15;4.13;;;2.58;;
47635;SDS011;33364;50.766;15.338;2024-02-23T01:53:42;4.03;;;2.90;;
47635;SDS011;33364;50.766;15.338;2024-02-23T01:56:08;4.43;;;2.70;;
47635;SDS011;33364;50.766;15.338;2024-02-23T01:58:35;5.22;;;2.50;;
47635;SDS011;33364;50.766;15.338;2024-02-23T02:01:02;3.72;;;2.70;;
47635;SDS011;33364;50.766;15.338;2024-02-23T02:03:29;3.72;;;2.70;;
47635;SDS011;33364;50.766;15.338;2024-02-23T02:05:55;5.43;;;3.50;;
47635;SDS011;33364;50.766;15.338;2024-02-23T02:08:25;3.45;;;2.83;;
47635;SDS011;33364;50.766;15.338;2024-02-23T02:10:51;5.05;;;2.75;;
47635;SDS011;33364;50.766;15.338;2024-02-23T02:13:17;4.03;;;2.90;;
47635;SDS011;33364;50.766;15.338;2024-02-23T02:15:42;3.90;;;2.67;;
47635;SDS011;33364;50.766;15.338;2024-02-23T02:18:11;4.53;;;2.88;;
47635;SDS011;33364;50.766;15.338;2024-02-23T02:20:37;5.10;;;2.70;;
47635;SDS011;33364;50.766;15.338;2024-02-23T02:23:13;4.25;;;3.28;;
47635;SDS011;33364;50.766;15.338;2024-02-23T02:25:38;4.38;;;2.72;;
47635;SDS011;33364;50.766;15.338;2024-02-23T02:28:06;4.68;;;3.05;;
47635;SDS011;33364;50.766;15.338;2024-02-23T02:30:32;5.00;;;2.60;;
47635;SDS011;33364;50.766;15.338;2024-02-23T02:32:58;3.67;;;2.58;;
47635;SDS011;33364;50.766;15.338;2024-02-23T02:35:24;4.53;;;3.13;;
47635;SDS011;33364;50.766;15.338;2024-02-23T02:37:49;4.00;;;2.80;;
47635;SDS011;33364;50.766;15.338;2024-02-23T02:40:16;3.55;;;2.50;;
47635;SDS011;33364;50.766;15.338;2024-02-23T02:42:41;4.75;;;2.72;;
47635;SDS011;33364;50.766;15.338;2024-02-23T02:45:07;4.50;;;2.80;;
47635;SDS011;33364;50.766;15.338;2024-02-23T02:47:33;5.57;;;2.45;;
47635;SDS011;33364;50.766;15.338;2024-02-23T02:49:59;5.70;;;3.13;;
47635;SDS011;33364;50.766;15.338;2024-02-23T02:52:25;4.32;;;2.85;;
47635;SDS011;33364;50.766;15.338;2024-02-23T02:54:50;4.72;;;3.17;;
47635;SDS011;33364;50.766;15.338;2024-02-23T02:57:17;5.78;;;3.25;;
47635;SDS011;33364;50.766;15.338;2024-02-23T02:59:42;4.72;;;3.53;;
47635;SDS011;33364;50.766;15.338;2024-02-23T03:02:10;5.13;;;3.00;;
47635;SDS011;33364;50.766;15.338;2024-02-23T03:04:35;4.25;;;2.88;;
47635;SDS011;33364;50.766;15.338;2024-02-23T03:07:01;4.72;;;3.38;;
47635;SDS011;33364;50.766;15.338;2024-02-23T03:09:27;4.57;;;2.65;;
47635;SDS011;33364;50.766;15.338;2024-02-23T03:11:53;3.30;;;2.70;;
47635;SDS011;33364;50.766;15.338;2024-02-23T03:14:18;4.38;;;2.75;;
47635;SDS011;33364;50.766;15.338;2024-02-23T03:16:46;7.22;;;2.28;;
47635;SDS011;33364;50.766;15.338;2024-02-23T03:19:14;3.30;;;2.63;;
47635;SDS011;33364;50.766;15.338;2024-02-23T03:21:41;5.00;;;2.40;;
47635;SDS011;33364;50.766;15.338;2024-02-23T03:24:06;3.75;;;2.85;;
47635;SDS011;33364;50.766;15.338;2024-02-23T03:26:32;2.80;;;2.30;;
47635;SDS011;33364;50.766;15.338;2024-02-23T03:28:58;3.28;;;2.63;;
47635;SDS011;33364;50.766;15.338;2024-02-23T03:31:23;3.13;;;2.58;;
47635;SDS011;33364;50.766;15.338;2024-02-23T03:33:49;5.10;;;2.55;;
47635;SDS011;33364;50.766;15.338;2024-02-23T03:36:15;3.33;;;2.72;;
47635;SDS011;33364;50.766;15.338;2024-02-23T03:38:40;4.32;;;2.50;;
47635;SDS011;33364;50.766;15.338;2024-02-23T03:41:06;5.00;;;3.05;;
47635;SDS011;33364;50.766;15.338;2024-02-23T03:43:32;4.00;;;3.35;;
47635;SDS011;33364;50.766;15.338;2024-02-23T03:45:58;5.10;;;3.20;;
47635;SDS011;33364;50.766;15.338;2024-02-23T03:48:23;4.93;;;3.15;;
47635;SDS011;33364;50.766;15.338;2024-02-23T03:50:49;4.20;;;2.95;;
47635;SDS011;33364;50.766;15.338;2024-02-23T03:53:15;7.20;;;4.72;;
47635;SDS011;33364;50.766;15.338;2024-02-23T03:55:41;4.05;;;3.17;;
47635;SDS011;33364;50.766;15.338;2024-02-23T03:58:06;5.03;;;3.67;;
47635;SDS011;33364;50.766;15.338;2024-02-23T04:00:32;5.50;;;3.33;;
47635;SDS011;33364;50.766;15.338;2024-02-23T04:03:01;3.58;;;2.75;;
47635;SDS011;33364;50.766;15.338;2024-02-23T04:05:27;4.13;;;2.85;;
47635;SDS011;33364;50.766;15.338;2024-02-23T04:07:53;3.53;;;2.97;;
47635;SDS011;33364;50.766;15.338;2024-02-23T04:10:18;3.92;;;2.47;;
47635;SDS011;33364;50.766;15.338;2024-02-23T04:12:46;2.60;;;2.30;;
47635;SDS011;33364;50.766;15.338;2024-02-23T04:15:12;3.58;;;2.75;;
47635;SDS011;33364;50.766;15.338;2024-02-23T04:17:38;3.30;;;2.60;;
47635;SDS011;33364;50.766;15.338;2024-02-23T04:20:07;4.32;;;2.70;;
47635;SDS011;33364;50.766;15.338;2024-02-23T04:22:35;2.83;;;2.50;;
47635;SDS011;33364;50.766;15.338;2024-02-23T04:25:02;3.00;;;2.13;;
47635;SDS011;33364;50.766;15.338;2024-02-23T04:27:28;4.78;;;2.38;;
47635;SDS011;33364;50.766;15.338;2024-02-23T04:29:54;2.72;;;2.10;;
47635;SDS011;33364;50.766;15.338;2024-02-23T04:32:19;3.80;;;2.20;;
47635;SDS011;33364;50.766;15.338;2024-02-23T04:34:45;4.65;;;2.10;;
47635;SDS011;33364;50.766;15.338;2024-02-23T04:37:11;7.20;;;3.97;;
47635;SDS011;33364;50.766;15.338;2024-02-23T04:39:36;3.97;;;3.13;;
47635;SDS011;33364;50.766;15.338;2024-02-23T04:42:03;3.40;;;2.83;;
47635;SDS011;33364;50.766;15.338;2024-02-23T04:44:30;5.10;;;2.25;;
47635;SDS011;33364;50.766;15.338;2024-02-23T04:46:55;7.50;;;5.20;;
47635;SDS011;33364;50.766;15.338;2024-02-23T04:49:21;9.63;;;6.03;;
47635;SDS011;33364;50.766;15.338;2024-02-23T04:51:47;5.53;;;2.92;;
47635;SDS011;33364;50.766;15.338;2024-02-23T04:54:13;2.53;;;1.70;;
47635;SDS011;33364;50.766;15.338;2024-02-23T04:56:38;3.28;;;1.95;;
47635;SDS011;33364;50.766;15.338;2024-02-23T04:59:05;2.28;;;1.33;;
47635;SDS011;33364;50.766;15.338;2024-02-23T05:01:34;2.22;;;1.30;;
47635;SDS011;33364;50.766;15.338;2024-02-23T05:04:01;2.45;;;1.20;;
47635;SDS011;33364;50.766;15.338;2024-02-23T05:06:27;3.08;;;1.52;;
47635;SDS011;33364;50.766;15.338;2024-02-23T05:08:52;2.67;;;1.65;;
47635;SDS011;33364;50.766;15.338;2024-02-23T05:11:18;2.55;;;1.20;;
47635;SDS011;33364;50.766;15.338;2024-02-23T05:13:44;4.78;;;1.13;;
47635;SDS011;33364;50.766;15.338;2024-02-23T05:16:09;2.60;;;1.10;;
47635;SDS011;33364;50.766;15.338;2024-02-23T05:18:35;2.15;;;1.30;;
47635;SDS011;33364;50.766;15.338;2024-02-23T05:21:01;2.55;;;1.33;;
47635;SDS011;33364;50.766;15.338;2024-02-23T05:23:27;3.20;;;1.33;;
47635;SDS011;33364;50.766;15.338;2024-02-23T05:25:52;3.45;;;1.90;;
47635;SDS011;33364;50.766;15.338;2024-02-23T05:28:18;3.15;;;1.88;;
47635;SDS011;33364;50.766;15.338;2024-02-23T05:30:44;3.08;;;1.30;;
47635;SDS011;33364;50.766;15.338;2024-02-23T05:33:10;1.48;;;1.20;;
47635;SDS011;33364;50.766;15.338;2024-02-23T05:35:35;1.75;;;1.30;;
47635;SDS011;33364;50.766;15.338;2024-02-23T05:38:01;2.05;;;1.00;;
47635;SDS011;33364;50.766;15.338;2024-02-23T05:40:27;4.15;;;0.98;;
47635;SDS011;33364;50.766;15.338;2024-02-23T05:42:53;4.57;;;1.20;;
47635;SDS011;33364;50.766;15.338;2024-02-23T05:45:20;2.55;;;1.50;;
47635;SDS011;33364;50.766;15.338;2024-02-23T05:47:46;2.35;;;1.10;;
47635;SDS011;33364;50.766;15.338;2024-02-23T05:50:11;2.20;;;1.30;;
47635;SDS011;33364;50.766;15.338;2024-02-23T05:52:37;1.80;;;1.30;;
47635;SDS011;33364;50.766;15.338;2024-02-23T05:55:03;1.75;;;1.10;;
47635;SDS011;33364;50.766;15.338;2024-02-23T05:57:29;1.85;;;1.48;;
47635;SDS011;33364;50.766;15.338;2024-02-23T05:59:55;1.80;;;1.30;;
47635;SDS011;33364;50.766;15.338;2024-02-23T06:02:24;1.77;;;1.17;;
47635;SDS011;33364;50.766;15.338;2024-02-23T06:04:49;4.03;;;2.40;;
47635;SDS011;33364;50.766;15.338;2024-02-23T06:07:15;3.80;;;1.77;;
47635;SDS011;33364;50.766;15.338;2024-02-23T06:09:41;2.13;;;1.25;;
47635;SDS011;33364;50.766;15.338;2024-02-23T06:12:08;3.03;;;1.23;;
47635;SDS011;33364;50.766;15.338;2024-02-23T06:14:33;3.13;;;1.23;;
47635;SDS011;33364;50.766;15.338;2024-02-23T06:17:00;2.63;;;1.05;;
47635;SDS011;33364;50.766;15.338;2024-02-23T06:19:26;2.50;;;1.10;;
47635;SDS011;33364;50.766;15.338;2024-02-23T06:21:51;7.57;;;1.90;;
47635;SDS011;33364;50.766;15.338;2024-02-23T06:24:17;4.40;;;1.58;;
47635;SDS011;33364;50.766;15.338;2024-02-23T06:26:43;3.22;;;1.30;;
47635;SDS011;33364;50.766;15.338;2024-02-23T06:29:09;3.30;;;1.50;;
47635;SDS011;33364;50.766;15.338;2024-02-23T06:31:38;6.38;;;2.45;;
47635;SDS011;33364;50.766;15.338;2024-02-23T06:34:07;3.00;;;1.60;;
47635;SDS011;33364;50.766;15.338;2024-02-23T06:36:33;4.78;;;1.40;;
47635;SDS011;33364;50.766;15.338;2024-02-23T06:38:59;6.20;;;2.05;;
47635;SDS011;33364;50.766;15.338;2024-02-23T06:41:25;4.10;;;1.70;;
47635;SDS011;33364;50.766;15.338;2024-02-23T06:43:51;2.58;;;1.30;;
47635;SDS011;33364;50.766;15.338;2024-02-23T06:46:18;1.73;;;1.20;;
47635;SDS011;33364;50.766;15.338;2024-02-23T06:48:47;2.83;;;1.00;;
47635;SDS011;33364;50.766;15.338;2024-02-23T06:51:13;1.80;;;0.90;;
47635;SDS011;33364;50.766;15.338;2024-02-23T06:53:40;1.80;;;0.70;;
47635;SDS011;33364;50.766;15.338;2024-02-23T06:56:06;2.17;;;1.25;;
47635;SDS011;33364;50.766;15.338;2024-02-23T06:58:32;2.25;;;0.80;;
47635;SDS011;33364;50.766;15.338;2024-02-23T07:00:58;1.05;;;0.80;;
47635;SDS011;33364;50.766;15.338;2024-02-23T07:03:24;2.13;;;0.88;;
47635;SDS011;33364;50.766;15.338;2024-02-23T07:05:51;1.80;;;1.00;;
47635;SDS011;33364;50.766;15.338;2024-02-23T07:08:17;2.25;;;0.85;;
47635;SDS011;33364;50.766;15.338;2024-02-23T07:10:43;1.58;;;0.80;;
47635;SDS011;33364;50.766;15.338;2024-02-23T07:13:09;2.60;;;1.30;;
47635;SDS011;33364;50.766;15.338;2024-02-23T07:15:35;2.08;;;1.08;;
47635;SDS011;33364;50.766;15.338;2024-02-23T07:18:01;3.53;;;1.05;;
47635;SDS011;33364;50.766;15.338;2024-02-23T07:20:27;2.25;;;0.70;;
47635;SDS011;33364;50.766;15.338;2024-02-23T07:22:53;1.40;;;0.80;;
47635;SDS011;33364;50.766;15.338;2024-02-23T07:25:19;1.73;;;1.00;;
47635;SDS011;33364;50.766;15.338;2024-02-23T07:27:46;2.35;;;1.02;;
47635;SDS011;33364;50.766;15.338;2024-02-23T07:30:14;1.90;;;0.95;;
47635;SDS011;33364;50.766;15.338;2024-02-23T07:32:41;3.30;;;1.00;;
47635;SDS011;33364;50.766;15.338;2024-02-23T07:35:08;4.80;;;1.02;;
47635;SDS011;33364;50.766;15.338;2024-02-23T07:37:34;5.15;;;0.95;;
47635;SDS011;33364;50.766;15.338;2024-02-23T07:40:00;3.15;;;0.90;;
47635;SDS011;33364;50.766;15.338;2024-02-23T07:42:26;3.67;;;1.80;;
47635;SDS011;33364;50.766;15.338;2024-02-23T07:44:52;4.80;;;1.38;;
47635;SDS011;33364;50.766;15.338;2024-02-23T07:47:18;1.45;;;0.82;;
47635;SDS011;33364;50.766;15.338;2024-02-23T07:49:44;2.22;;;1.00;;
47635;SDS011;33364;50.766;15.338;2024-02-23T07:52:09;2.28;;;1.15;;
47635;SDS011;33364;50.766;15.338;2024-02-23T07:54:35;3.03;;;1.13;;
47635;SDS011;33364;50.766;15.338;2024-02-23T07:57:01;2.95;;;1.45;;
47635;SDS011;33364;50.766;15.338;2024-02-23T07:59:30;2.40;;;1.23;;
47635;SDS011;33364;50.766;15.338;2024-02-23T08:01:56;5.85;;;1.45;;
47635;SDS011;33364;50.766;15.338;2024-02-23T08:04:22;3.03;;;2.70;;
47635;SDS011;33364;50.766;15.338;2024-02-23T08:06:48;3.90;;;1.65;;
47635;SDS011;33364;50.766;15.338;2024-02-23T08:09:14;5.38;;;1.90;;
47635;SDS011;33364;50.766;15.338;2024-02-23T08:11:40;9.93;;;4.30;;
47635;SDS011;33364;50.766;15.338;2024-02-23T08:14:06;10.20;;;3.42;;
47635;SDS011;33364;50.766;15.338;2024-02-23T08:16:31;6.53;;;2.53;;
47635;SDS011;33364;50.766;15.338;2024-02-23T08:18:58;13.35;;;5.20;;
47635;SDS011;33364;50.766;15.338;2024-02-23T08:21:24;13.00;;;5.03;;
47635;SDS011;33364;50.766;15.338;2024-02-23T08:23:51;11.35;;;5.63;;
47635;SDS011;33364;50.766;15.338;2024-02-23T08:26:17;39.67;;;21.65;;
47635;SDS011;33364;50.766;15.338;2024-02-23T08:28:43;22.15;;;10.80;;
47635;SDS011;33364;50.766;15.338;2024-02-23T08:31:09;11.65;;;4.85;;
47635;SDS011;33364;50.766;15.338;2024-02-23T08:33:35;7.68;;;3.03;;
47635;SDS011;33364;50.766;15.338;2024-02-23T08:36:01;18.45;;;7.82;;
47635;SDS011;33364;50.766;15.338;2024-02-23T08:38:27;13.65;;;5.80;;
47635;SDS011;33364;50.766;15.338;2024-02-23T08:40:52;9.98;;;4.05;;
47635;SDS011;33364;50.766;15.338;2024-02-23T08:43:18;13.80;;;6.00;;
47635;SDS011;33364;50.766;15.338;2024-02-23T08:45:45;27.25;;;10.50;;
47635;SDS011;33364;50.766;15.338;2024-02-23T08:48:11;17.95;;;8.38;;
47635;SDS011;33364;50.766;15.338;2024-02-23T08:50:40;25.80;;;11.95;;
47635;SDS011;33364;50.766;15.338;2024-02-23T08:53:06;24.70;;;9.73;;
47635;SDS011;33364;50.766;15.338;2024-02-23T08:55:32;17.88;;;7.25;;
47635;SDS011;33364;50.766;15.338;2024-02-23T08:57:58;26.60;;;11.98;;
47635;SDS011;33364;50.766;15.338;2024-02-23T09:00:24;7.65;;;3.42;;
47635;SDS011;33364;50.766;15.338;2024-02-23T09:02:50;7.47;;;2.80;;
47635;SDS011;33364;50.766;15.338;2024-02-23T09:05:16;10.82;;;4.80;;
47635;SDS011;33364;50.766;15.338;2024-02-23T09:07:42;15.38;;;6.57;;
47635;SDS011;33364;50.766;15.338;2024-02-23T09:10:08;18.00;;;8.10;;
47635;SDS011;33364;50.766;15.338;2024-02-23T09:12:34;7.50;;;3.90;;
47635;SDS011;33364;50.766;15.338;2024-02-23T09:15:00;9.88;;;4.03;;
47635;SDS011;33364;50.766;15.338;2024-02-23T09:17:26;12.80;;;5.25;;
47635;SDS011;33364;50.766;15.338;2024-02-23T09:19:51;7.38;;;3.80;;
47635;SDS011;33364;50.766;15.338;2024-02-23T09:22:17;8.50;;;4.47;;
47635;SDS011;33364;50.766;15.338;2024-02-23T09:24:43;11.85;;;4.78;;
47635;SDS011;33364;50.766;15.338;2024-02-23T09:27:09;9.15;;;3.50;;
47635;SDS011;33364;50.766;15.338;2024-02-23T09:29:34;4.82;;;2.28;;
47635;SDS011;33364;50.766;15.338;2024-02-23T09:32:00;7.72;;;3.75;;
47635;SDS011;33364;50.766;15.338;2024-02-23T09:34:26;12.40;;;3.03;;
47635;SDS011;33364;50.766;15.338;2024-02-23T09:36:52;5.25;;;2.10;;
47635;SDS011;33364;50.766;15.338;2024-02-23T09:39:18;11.77;;;6.70;;
47635;SDS011;33364;50.766;15.338;2024-02-23T09:41:45;5.82;;;2.38;;
47635;SDS011;33364;50.766;15.338;2024-02-23T09:44:11;7.10;;;2.00;;
47635;SDS011;33364;50.766;15.338;2024-02-23T09:46:38;2.80;;;1.27;;
47635;SDS011;33364;50.766;15.338;2024-02-23T09:49:05;4.78;;;2.08;;
47635;SDS011;33364;50.766;15.338;2024-02-23T09:51:34;2.40;;;1.17;;
47635;SDS011;33364;50.766;15.338;2024-02-23T09:54:01;2.83;;;1.77;;
47635;SDS011;33364;50.766;15.338;2024-02-23T09:56:28;8.82;;;3.92;;
47635;SDS011;33364;50.766;15.338;2024-02-23T09:58:59;10.35;;;4.70;;
47635;SDS011;33364;50.766;15.338;2024-02-23T10:01:30;13.90;;;8.27;;
47635;SDS011;33364;50.766;15.338;2024-02-23T10:03:59;6.25;;;3.22;;
47635;SDS011;33364;50.766;15.338;2024-02-23T10:06:26;5.18;;;3.00;;
47635;SDS011;33364;50.766;15.338;2024-02-23T10:08:56;4.22;;;2.35;;
47635;SDS011;33364;50.766;15.338;2024-02-23T10:11:22;5.47;;;1.77;;
47635;SDS011;33364;50.766;15.338;2024-02-23T10:13:49;3.70;;;1.45;;
47635;SDS011;33364;50.766;15.338;2024-02-23T10:16:15;3.92;;;1.35;;
47635;SDS011;33364;50.766;15.338;2024-02-23T10:18:42;5.30;;;1.67;;
47635;SDS011;33364;50.766;15.338;2024-02-23T10:21:08;4.00;;;1.45;;
47635;SDS011;33364;50.766;15.338;2024-02-23T10:23:34;4.22;;;1.40;;
47635;SDS011;33364;50.766;15.338;2024-02-23T10:26:00;2.97;;;1.10;;
47635;SDS011;33364;50.766;15.338;2024-02-23T10:28:25;2.58;;;1.00;;
47635;SDS011;33364;50.766;15.338;2024-02-23T10:30:53;2.40;;;1.20;;
47635;SDS011;33364;50.766;15.338;2024-02-23T10:33:21;4.43;;;1.30;;
47635;SDS011;33364;50.766;15.338;2024-02-23T10:35:48;2.78;;;1.20;;
47635;SDS011;33364;50.766;15.338;2024-02-23T10:38:21;5.15;;;2.58;;
47635;SDS011;33364;50.766;15.338;2024-02-23T10:40:48;4.60;;;1.20;;
47635;SDS011;33364;50.766;15.338;2024-02-23T10:43:16;3.55;;;1.25;;
47635;SDS011;33364;50.766;15.338;2024-02-23T10:45:46;3.00;;;1.00;;
47635;SDS011;33364;50.766;15.338;2024-02-23T10:48:12;2.53;;;1.02;;
47635;SDS011;33364;50.766;15.338;2024-02-23T10:50:39;3.42;;;1.35;;
47635;SDS011;33364;50.766;15.338;2024-02-23T10:53:07;1.80;;;1.08;;
47635;SDS011;33364;50.766;15.338;2024-02-23T10:55:36;4.15;;;2.25;;
47635;SDS011;33364;50.766;15.338;2024-02-23T10:58:08;2.65;;;1.67;;
47635;SDS011;33364;50.766;15.338;2024-02-23T11:00:37;4.53;;;2.05;;
47635;SDS011;33364;50.766;15.338;2024-02-23T11:03:03;5.45;;;1.73;;
47635;SDS011;33364;50.766;15.338;2024-02-23T11:05:32;9.77;;;3.58;;
47635;SDS011;33364;50.766;15.338;2024-02-23T11:07:58;7.82;;;4.72;;
47635;SDS011;33364;50.766;15.338;2024-02-23T11:10:24;10.27;;;4.80;;
47635;SDS011;33364;50.766;15.338;2024-02-23T11:13:00;7.00;;;4.50;;
47635;SDS011;33364;50.766;15.338;2024-02-23T11:15:29;19.00;;;9.25;;
47635;SDS011;33364;50.766;15.338;2024-02-23T11:17:59;8.77;;;4.97;;
47635;SDS011;33364;50.766;15.338;2024-02-23T11:20:34;41.58;;;26.05;;
47635;SDS011;33364;50.766;15.338;2024-02-23T11:23:00;9.93;;;6.28;;
47635;SDS011;33364;50.766;15.338;2024-02-23T11:25:26;13.85;;;9.82;;
47635;SDS011;33364;50.766;15.338;2024-02-23T11:27:52;6.57;;;5.15;;
47635;SDS011;33364;50.766;15.338;2024-02-23T11:30:18;6.97;;;4.95;;
47635;SDS011;33364;50.766;15.338;2024-02-23T11:32:45;4.22;;;3.55;;
47635;SDS011;33364;50.766;15.338;2024-02-23T11:35:16;2.65;;;2.13;;
47635;SDS011;33364;50.766;15.338;2024-02-23T11:37:54;3.85;;;1.67;;
47635;SDS011;33364;50.766;15.338;2024-02-23T11:40:26;5.50;;;2.15;;
47635;SDS011;33364;50.766;15.338;2024-02-23T11:42:52;8.00;;;5.03;;
47635;SDS011;33364;50.766;15.338;2024-02-23T11:45:19;5.97;;;4.00;;
47635;SDS011;33364;50.766;15.338;2024-02-23T11:47:45;7.63;;;6.18;;
47635;SDS011;33364;50.766;15.338;2024-02-23T11:50:11;7.72;;;2.70;;
47635;SDS011;33364;50.766;15.338;2024-02-23T11:52:37;5.07;;;2.65;;
47635;SDS011;33364;50.766;15.338;2024-02-23T11:55:04;3.88;;;2.30;;
47635;SDS011;33364;50.766;15.338;2024-02-23T11:57:31;3.88;;;2.20;;
47635;SDS011;33364;50.766;15.338;2024-02-23T11:59:58;4.80;;;2.33;;
47635;SDS011;33364;50.766;15.338;2024-02-23T12:02:24;8.15;;;4.95;;
47635;SDS011;33364;50.766;15.338;2024-02-23T12:04:49;9.27;;;4.88;;
47635;SDS011;33364;50.766;15.338;2024-02-23T12:07:16;5.50;;;2.72;;
47635;SDS011;33364;50.766;15.338;2024-02-23T12:09:42;4.35;;;3.58;;
47635;SDS011;33364;50.766;15.338;2024-02-23T12:12:09;5.57;;;2.53;;
47635;SDS011;33364;50.766;15.338;2024-02-23T12:14:35;3.28;;;2.00;;
47635;SDS011;33364;50.766;15.338;2024-02-23T12:17:02;5.93;;;2.85;;
47635;SDS011;33364;50.766;15.338;2024-02-23T12:19:32;2.75;;;1.30;;
47635;SDS011;33364;50.766;15.338;2024-02-23T12:22:01;3.00;;;1.70;;
47635;SDS011;33364;50.766;15.338;2024-02-23T12:24:27;5.57;;;1.65;;
47635;SDS011;33364;50.766;15.338;2024-02-23T12:26:55;2.33;;;1.05;;
47635;SDS011;33364;50.766;15.338;2024-02-23T12:29:21;3.25;;;1.35;;
47635;SDS011;33364;50.766;15.338;2024-02-23T12:31:48;5.00;;;1.63;;
47635;SDS011;33364;50.766;15.338;2024-02-23T12:34:14;4.75;;;1.42;;
47635;SDS011;33364;50.766;15.338;2024-02-23T12:36:40;2.90;;;1.48;;
47635;SDS011;33364;50.766;15.338;2024-02-23T12:39:06;5.55;;;1.40;;
47635;SDS011;33364;50.766;15.338;2024-02-23T12:41:32;2.97;;;2.10;;
47635;SDS011;33364;50.766;15.338;2024-02-23T12:43:58;10.88;;;4.53;;
47635;SDS011;33364;50.766;15.338;2024-02-23T12:46:24;5.72;;;2.80;;
47635;SDS011;33364;50.766;15.338;2024-02-23T12:48:50;6.10;;;3.35;;
47635;SDS011;33364;50.766;15.338;2024-02-23T12:51:16;8.32;;;3.20;;
47635;SDS011;33364;50.766;15.338;2024-02-23T12:53:43;6.03;;;2.22;;
47635;SDS011;33364;50.766;15.338;2024-02-23T12:56:10;3.65;;;1.23;;
47635;SDS011;33364;50.766;15.338;2024-02-23T12:58:39;4.03;;;1.50;;
47635;SDS011;33364;50.766;15.338;2024-02-23T13:01:06;2.05;;;1.17;;
47635;SDS011;33364;50.766;15.338;2024-02-23T13:03:32;4.03;;;2.70;;
47635;SDS011;33364;50.766;15.338;2024-02-23T13:05:59;3.15;;;2.00;;
47635;SDS011;33364;50.766;15.338;2024-02-23T13:08:25;5.95;;;3.53;;
47635;SDS011;33364;50.766;15.338;2024-02-23T13:10:51;6.05;;;4.38;;
47635;SDS011;33364;50.766;15.338;2024-02-23T13:13:18;2.95;;;1.92;;
47635;SDS011;33364;50.766;15.338;2024-02-23T13:15:45;8.50;;;5.50;;
47635;SDS011;33364;50.766;15.338;2024-02-23T13:18:12;6.15;;;3.03;;
47635;SDS011;33364;50.766;15.338;2024-02-23T13:20:38;11.60;;;6.80;;
47635;SDS011;33364;50.766;15.338;2024-02-23T13:23:04;8.95;;;5.25;;
47635;SDS011;33364;50.766;15.338;2024-02-23T13:25:32;4.55;;;2.08;;
47635;SDS011;33364;50.766;15.338;2024-02-23T13:27:58;5.53;;;3.30;;
47635;SDS011;33364;50.766;15.338;2024-02-23T13:30:24;10.10;;;4.70;;
47635;SDS011;33364;50.766;15.338;2024-02-23T13:32:49;13.25;;;5.47;;
47635;SDS011;33364;50.766;15.338;2024-02-23T13:35:16;8.07;;;3.33;;
47635;SDS011;33364;50.766;15.338;2024-02-23T13:37:42;14.35;;;5.60;;
47635;SDS011;33364;50.766;15.338;2024-02-23T13:40:08;15.88;;;5.55;;
47635;SDS011;33364;50.766;15.338;2024-02-23T13:42:35;19.00;;;5.93;;
47635;SDS011;33364;50.766;15.338;2024-02-23T13:45:01;13.20;;;5.00;;
47635;SDS011;33364;50.766;15.338;2024-02-23T13:47:27;29.23;;;10.70;;
47635;SDS011;33364;50.766;15.338;2024-02-23T13:49:53;16.40;;;6.18;;
47635;SDS011;33364;50.766;15.338;2024-02-23T13:52:18;21.80;;;8.45;;
47635;SDS011;33364;50.766;15.338;2024-02-23T13:54:44;31.45;;;9.20;;
47635;SDS011;33364;50.766;15.338;2024-02-23T13:57:10;24.70;;;8.65;;
47635;SDS011;33364;50.766;15.338;2024-02-23T13:59:36;32.83;;;11.23;;
47635;SDS011;33364;50.766;15.338;2024-02-23T14:02:02;8.43;;;3.40;;
47635;SDS011;33364;50.766;15.338;2024-02-23T14:04:28;8.15;;;3.08;;
47635;SDS011;33364;50.766;15.338;2024-02-23T14:06:54;7.18;;;2.80;;
47635;SDS011;33364;50.766;15.338;2024-02-23T14:09:20;5.40;;;2.70;;
47635;SDS011;33364;50.766;15.338;2024-02-23T14:11:45;4.55;;;2.30;;
47635;SDS011;33364;50.766;15.338;2024-02-23T14:14:11;6.20;;;2.33;;
47635;SDS011;33364;50.766;15.338;2024-02-23T14:16:37;11.10;;;5.05;;
47635;SDS011;33364;50.766;15.338;2024-02-23T14:19:03;6.43;;;3.13;;
47635;SDS011;33364;50.766;15.338;2024-02-23T14:21:29;5.57;;;2.33;;
47635;SDS011;33364;50.766;15.338;2024-02-23T14:23:55;8.15;;;1.90;;
47635;SDS011;33364;50.766;15.338;2024-02-23T14:26:21;5.25;;;2.13;;
47635;SDS011;33364;50.766;15.338;2024-02-23T14:28:47;4.68;;;2.15;;